Terminal Aerodrome Forecast
Issued by NWS

Home | Current Version | Previous Version | Text Only | Print | Product List | Glossary On
Versions: 1 2 3 4 5 6 7 8 9 10 11 12 13 14 15 16 17 18 19 20 21 22 23 24 25 26 27 28 29 30 31 32 33 34 35
000
FTUS45 KGJT 021740
TAFTEX
TAF
KTEX 021740Z 0218/0318 28003KT P6SM VCSH SCT050 OVC070
      TEMPO 0218/0222 VRB15G25KT 4SM TSRA SCT025 OVC040CB
     FM030200 12004KT P6SM -SHRA SCT030 OVC050=

USA.gov is the U.S. government's official web portal to all federal, state and local government web resources and services.